createdAt,value
2022-11-29T00:00:03.142Z,0.090
2022-11-29T00:01:00.341Z,0.090
2022-11-29T00:02:00.471Z,0.090
2022-11-29T00:03:00.457Z,0.090
2022-11-29T00:04:00.292Z,0.090
2022-11-29T00:05:00.339Z,0.090
2022-11-29T00:06:00.456Z,0.090
2022-11-29T00:07:00.300Z,0.090
2022-11-29T00:08:00.251Z,0.090
2022-11-29T00:09:00.282Z,0.090
2022-11-29T00:10:00.296Z,0.090
2022-11-29T00:11:00.310Z,0.090
2022-11-29T00:12:00.453Z,0.090
2022-11-29T00:13:00.314Z,0.090
2022-11-29T00:14:00.277Z,0.090
2022-11-29T00:15:00.278Z,0.090
2022-11-29T00:16:00.296Z,0.090
2022-11-29T00:17:00.379Z,0.090
2022-11-29T00:18:00.472Z,0.090
2022-11-29T00:19:00.298Z,0.090
2022-11-29T00:20:00.255Z,0.090
2022-11-29T00:21:00.358Z,0.090
2022-11-29T00:22:00.314Z,0.090
2022-11-29T00:23:00.275Z,0.090
2022-11-29T00:24:00.451Z,0.090
2022-11-29T00:25:00.247Z,0.090
2022-11-29T00:26:00.247Z,0.090
2022-11-29T00:27:00.282Z,0.090
2022-11-29T00:28:00.275Z,0.090
2022-11-29T00:29:00.405Z,0.090
2022-11-29T00:30:00.488Z,0.090
2022-11-29T00:31:00.372Z,0.090
2022-11-29T00:32:00.305Z,0.090
2022-11-29T00:33:00.301Z,0.090
2022-11-29T00:34:00.378Z,0.090
2022-11-29T00:35:03.987Z,0.090
2022-11-29T00:36:00.481Z,0.090
2022-11-29T00:37:00.458Z,0.090
2022-11-29T00:38:00.309Z,0.090
2022-11-29T00:39:00.304Z,0.090
2022-11-29T00:40:00.289Z,0.090
2022-11-29T00:41:00.250Z,0.090
2022-11-29T00:42:00.478Z,0.090
2022-11-29T00:43:00.294Z,0.090
2022-11-29T00:44:00.285Z,0.090
2022-11-29T00:45:00.484Z,0.090
2022-11-29T00:46:00.327Z,0.090
2022-11-29T00:47:00.291Z,0.090
2022-11-29T00:48:00.479Z,0.090
2022-11-29T00:49:00.311Z,0.090
2022-11-29T00:50:00.276Z,0.090
2022-11-29T00:51:00.352Z,0.090
2022-11-29T00:52:00.407Z,0.090
2022-11-29T00:53:00.377Z,0.090
2022-11-29T00:54:00.419Z,0.090
2022-11-29T00:55:00.272Z,0.090
2022-11-29T00:56:00.303Z,0.090
2022-11-29T00:57:00.304Z,0.090
2022-11-29T00:58:00.273Z,0.090
2022-11-29T00:59:00.252Z,0.090
2022-11-29T01:00:00.447Z,0.090
2022-11-29T01:01:00.371Z,0.090
2022-11-29T01:02:00.361Z,0.045
2022-11-29T01:03:00.286Z,0.045
2022-11-29T01:04:00.254Z,0.045
2022-11-29T01:05:00.286Z,0.045
2022-11-29T01:06:00.547Z,0.045
2022-11-29T01:07:00.490Z,0.045
2022-11-29T01:08:00.243Z,0.045
2022-11-29T01:09:00.286Z,0.090
2022-11-29T01:10:00.254Z,0.090
2022-11-29T01:11:00.282Z,0.090
2022-11-29T01:12:00.490Z,0.090
2022-11-29T01:13:00.305Z,0.090
2022-11-29T01:14:00.271Z,0.090
2022-11-29T01:15:00.282Z,0.090
2022-11-29T01:16:00.261Z,0.090
2022-11-29T01:17:00.350Z,0.090
2022-11-29T01:18:00.469Z,0.090
2022-11-29T01:19:00.258Z,0.045
2022-11-29T01:20:00.288Z,0.045
2022-11-29T01:21:00.285Z,0.045
2022-11-29T01:22:00.337Z,0.045
2022-11-29T01:23:00.280Z,0.045
2022-11-29T01:24:00.465Z,0.045
2022-11-29T01:25:00.313Z,0.045
2022-11-29T01:26:00.281Z,0.045
2022-11-29T01:27:00.246Z,0.045
2022-11-29T01:28:00.248Z,0.045
2022-11-29T01:29:00.275Z,0.045
2022-11-29T01:30:00.453Z,0.045
2022-11-29T01:31:00.341Z,0.045
2022-11-29T01:32:00.339Z,0.045
2022-11-29T01:33:00.394Z,0.045
2022-11-29T01:34:00.324Z,0.045
2022-11-29T01:35:00.290Z,0.045
2022-11-29T01:36:00.488Z,0.045
2022-11-29T01:37:00.342Z,0.045
2022-11-29T01:38:00.390Z,0.045
2022-11-29T01:39:00.280Z,0.045
2022-11-29T01:40:00.307Z,0.045
2022-11-29T01:41:00.248Z,0.045
2022-11-29T01:42:00.417Z,0.045
2022-11-29T01:43:00.310Z,0.045
2022-11-29T01:44:00.273Z,0.045
2022-11-29T01:45:00.306Z,0.045
2022-11-29T01:46:00.407Z,0.045
2022-11-29T01:47:00.274Z,0.045
2022-11-29T01:48:00.517Z,0.045
2022-11-29T01:49:00.332Z,0.045
2022-11-29T01:50:00.257Z,0.045
2022-11-29T01:51:00.322Z,0.045
2022-11-29T01:52:00.288Z,0.045
2022-11-29T01:53:00.402Z,0.045
2022-11-29T01:54:00.491Z,0.045
2022-11-29T01:55:00.304Z,0.090
2022-11-29T01:56:00.319Z,0.090
2022-11-29T01:57:00.298Z,0.090
2022-11-29T01:58:00.320Z,0.090
2022-11-29T01:59:00.323Z,0.090
2022-11-29T02:00:00.477Z,0.090
2022-11-29T02:01:00.309Z,0.090
2022-11-29T02:02:00.281Z,0.090
2022-11-29T02:03:00.291Z,0.090
2022-11-29T02:04:00.304Z,0.090
2022-11-29T02:05:00.277Z,0.090
2022-11-29T02:06:00.573Z,0.045
2022-11-29T02:07:00.298Z,0.045
2022-11-29T02:08:00.541Z,0.045
2022-11-29T02:09:00.273Z,0.045
2022-11-29T02:10:00.278Z,0.045
2022-11-29T02:11:00.244Z,0.045
2022-11-29T02:12:00.391Z,0.045
2022-11-29T02:13:00.254Z,0.045
2022-11-29T02:14:00.271Z,0.045
2022-11-29T02:15:00.278Z,0.045
2022-11-29T02:16:00.369Z,0.045
2022-11-29T02:17:00.280Z,0.045
2022-11-29T02:18:00.492Z,0.045
2022-11-29T02:19:00.280Z,0.045
2022-11-29T02:20:00.248Z,0.045
2022-11-29T02:21:00.281Z,0.045
2022-11-29T02:22:00.304Z,0.045
2022-11-29T02:23:00.405Z,0.045
2022-11-29T02:24:00.389Z,0.045
2022-11-29T02:25:00.353Z,0.045
2022-11-29T02:26:00.350Z,0.045
2022-11-29T02:27:00.308Z,0.045
2022-11-29T02:28:00.382Z,0.045
2022-11-29T02:29:00.255Z,0.045
2022-11-29T02:30:00.390Z,0.045
2022-11-29T02:31:00.357Z,0.045
2022-11-29T02:32:00.287Z,0.045
2022-11-29T02:33:00.305Z,0.045
2022-11-29T02:34:00.329Z,0.045
2022-11-29T02:35:00.353Z,0.045
2022-11-29T02:36:00.490Z,0.045
2022-11-29T02:37:00.307Z,0.045
2022-11-29T02:38:00.395Z,0.045
2022-11-29T02:39:00.370Z,0.045
2022-11-29T02:40:00.275Z,0.045
2022-11-29T02:41:00.253Z,0.045
2022-11-29T02:42:00.565Z,0.045
2022-11-29T02:43:00.303Z,0.045
2022-11-29T02:44:00.280Z,0.045
2022-11-29T02:45:00.270Z,0.045
2022-11-29T02:46:00.326Z,0.045
2022-11-29T02:47:00.248Z,0.045
2022-11-29T02:48:00.402Z,0.045
2022-11-29T02:49:00.273Z,0.045
2022-11-29T02:50:00.280Z,0.045
2022-11-29T02:51:00.275Z,0.045
2022-11-29T02:52:00.309Z,0.045
2022-11-29T02:53:00.281Z,0.045
2022-11-29T02:54:00.417Z,0.045
2022-11-29T02:55:00.307Z,0.045
2022-11-29T02:56:00.312Z,0.045
2022-11-29T02:57:00.251Z,0.045
2022-11-29T02:58:00.308Z,0.045
2022-11-29T02:59:00.273Z,0.045
2022-11-29T03:00:00.382Z,0.045
2022-11-29T03:01:00.277Z,0.045
2022-11-29T03:02:00.311Z,0.045
2022-11-29T03:03:00.322Z,0.045
2022-11-29T03:04:00.311Z,0.045
2022-11-29T03:05:00.331Z,0.045
2022-11-29T03:06:00.418Z,0.090
2022-11-29T03:07:00.389Z,0.045
2022-11-29T03:08:00.405Z,0.045
2022-11-29T03:09:00.510Z,0.045
2022-11-29T03:10:00.409Z,0.045
2022-11-29T03:11:00.254Z,0.090
2022-11-29T03:12:00.444Z,0.090
2022-11-29T03:13:00.364Z,0.090
2022-11-29T03:14:00.271Z,0.090
2022-11-29T03:15:00.312Z,0.090
2022-11-29T03:16:00.337Z,0.090
2022-11-29T03:17:00.284Z,0.090
2022-11-29T03:18:00.442Z,0.090
2022-11-29T03:19:00.286Z,0.090
2022-11-29T03:20:00.295Z,0.090
2022-11-29T03:21:00.279Z,0.090
2022-11-29T03:22:00.258Z,0.135
2022-11-29T03:23:00.274Z,0.135
2022-11-29T03:24:00.431Z,0.135
2022-11-29T03:25:00.424Z,0.135
2022-11-29T03:26:00.272Z,0.135
2022-11-29T03:27:00.247Z,0.135
2022-11-29T03:28:00.244Z,0.180
2022-11-29T03:29:00.302Z,0.225
2022-11-29T03:30:00.437Z,0.270
2022-11-29T03:31:00.297Z,0.360
2022-11-29T03:32:00.246Z,0.405
2022-11-29T03:33:00.277Z,0.495
2022-11-29T03:34:00.285Z,0.585
2022-11-29T03:35:00.271Z,0.810
2022-11-29T03:36:00.430Z,0.945
2022-11-29T03:37:00.328Z,1.215
2022-11-29T03:38:00.358Z,1.530
2022-11-29T03:39:00.297Z,1.935
2022-11-29T03:40:00.355Z,2.340
2022-11-29T03:41:00.492Z,2.925
2022-11-29T03:42:00.416Z,3.465
2022-11-29T03:43:00.277Z,4.185
2022-11-29T03:44:00.335Z,5.085
2022-11-29T03:45:00.324Z,6.075
2022-11-29T03:46:00.409Z,7.155
2022-11-29T03:47:00.467Z,8.595
2022-11-29T03:48:00.438Z,9.855
2022-11-29T03:49:00.304Z,11.295
2022-11-29T03:50:00.289Z,12.780
2022-11-29T03:51:00.558Z,14.580
2022-11-29T03:52:00.248Z,16.650
2022-11-29T03:53:00.387Z,18.900
2022-11-29T03:54:00.527Z,21.060
2022-11-29T03:55:00.275Z,23.760
2022-11-29T03:56:00.474Z,26.640
2022-11-29T03:57:00.295Z,30.600
2022-11-29T03:58:00.285Z,35.460
2022-11-29T03:59:00.277Z,40.680
2022-11-29T04:00:00.450Z,45.000
2022-11-29T04:01:00.311Z,48.600
2022-11-29T04:02:00.242Z,52.200
2022-11-29T04:03:00.320Z,56.520
2022-11-29T04:04:00.361Z,62.280
2022-11-29T04:05:00.278Z,68.400
2022-11-29T04:06:00.463Z,74.520
2022-11-29T04:07:00.353Z,81.360
2022-11-29T04:08:00.373Z,88.920
2022-11-29T04:09:00.274Z,100.080
2022-11-29T04:10:00.270Z,114.480
2022-11-29T04:11:00.244Z,128.160
2022-11-29T04:12:00.502Z,138.240
2022-11-29T04:13:00.303Z,144.000
2022-11-29T04:14:00.303Z,152.640
2022-11-29T04:15:00.279Z,164.160
2022-11-29T04:16:00.282Z,174.240
2022-11-29T04:17:00.275Z,198.720
2022-11-29T04:18:00.414Z,240.480
2022-11-29T04:19:00.279Z,298.080
2022-11-29T04:20:00.246Z,348.480
2022-11-29T04:21:00.345Z,383.040
2022-11-29T04:22:00.306Z,414.720
2022-11-29T04:23:00.328Z,443.520
2022-11-29T04:24:00.404Z,460.800
2022-11-29T04:25:00.350Z,475.200
2022-11-29T04:26:00.345Z,480.960
2022-11-29T04:27:00.571Z,512.640
2022-11-29T04:28:00.296Z,570.240
2022-11-29T04:29:00.320Z,601.920
2022-11-29T04:30:00.451Z,607.680
2022-11-29T04:31:00.313Z,627.840
2022-11-29T04:32:00.245Z,714.240
2022-11-29T04:33:00.275Z,823.680
2022-11-29T04:34:00.343Z,840.960
2022-11-29T04:35:00.358Z,840.960
2022-11-29T04:36:00.740Z,823.680
2022-11-29T04:37:00.415Z,794.880
2022-11-29T04:38:00.449Z,676.800
2022-11-29T04:39:00.378Z,653.760
2022-11-29T04:40:00.349Z,673.920
2022-11-29T04:41:00.284Z,691.200
2022-11-29T04:42:00.436Z,699.840
2022-11-29T04:43:00.427Z,725.760
2022-11-29T04:44:00.276Z,789.120
2022-11-29T04:45:00.281Z,852.480
2022-11-29T04:46:00.335Z,938.880
2022-11-29T04:47:00.845Z,973.440
2022-11-29T04:48:00.613Z,1088.640
2022-11-29T04:49:00.355Z,1175.040
2022-11-29T04:50:00.288Z,1209.600
2022-11-29T04:51:00.251Z,1192.320
2022-11-29T04:52:00.279Z,1198.080
2022-11-29T04:53:00.305Z,1157.760
2022-11-29T04:54:00.458Z,1169.280
2022-11-29T04:55:00.372Z,1134.720
2022-11-29T04:56:00.420Z,1146.240
2022-11-29T04:57:00.506Z,1128.960
2022-11-29T04:58:00.273Z,1152.000
2022-11-29T04:59:00.312Z,1221.120
2022-11-29T05:00:00.432Z,1296.000
2022-11-29T05:01:00.258Z,1416.960
2022-11-29T05:02:00.319Z,1474.560
2022-11-29T05:03:00.335Z,1486.080
2022-11-29T05:04:00.255Z,1296.000
2022-11-29T05:05:00.288Z,1301.760
2022-11-29T05:06:00.495Z,1405.440
2022-11-29T05:07:00.306Z,1612.800
2022-11-29T05:08:00.367Z,1923.840
2022-11-29T05:09:00.374Z,2004.480
2022-11-29T05:10:00.294Z,2188.800
2022-11-29T05:11:00.326Z,2350.080
2022-11-29T05:12:00.520Z,2534.400
2022-11-29T05:13:00.396Z,2327.040
2022-11-29T05:14:00.313Z,1774.080
2022-11-29T05:15:00.280Z,2177.280
2022-11-29T05:16:00.436Z,2004.480
2022-11-29T05:17:00.339Z,2292.480
2022-11-29T05:18:00.636Z,2949.120
2022-11-29T05:19:00.277Z,4608.000
2022-11-29T05:20:00.340Z,5137.920
2022-11-29T05:21:00.367Z,2764.800
2022-11-29T05:22:00.285Z,2626.560
2022-11-29T05:23:00.282Z,2453.760
2022-11-29T05:24:00.523Z,2833.920
2022-11-29T05:25:00.329Z,2810.880
2022-11-29T05:26:00.304Z,3571.200
2022-11-29T05:27:00.316Z,3248.640
2022-11-29T05:28:03.353Z,2856.960
2022-11-29T05:29:00.300Z,2730.240
2022-11-29T05:30:00.369Z,2833.920
2022-11-29T05:31:00.315Z,3179.520
2022-11-29T05:32:00.278Z,3709.440
2022-11-29T05:33:00.275Z,6220.800
2022-11-29T05:34:00.272Z,6497.280
2022-11-29T05:35:00.255Z,5091.840
2022-11-29T05:36:00.458Z,7971.840
2022-11-29T05:37:00.269Z,8801.280
2022-11-29T05:38:00.310Z,7464.960
2022-11-29T05:39:00.288Z,6082.560
2022-11-29T05:40:00.274Z,6635.520
2022-11-29T05:41:00.277Z,7096.320
2022-11-29T05:42:00.492Z,5760.000
2022-11-29T05:43:00.483Z,6266.880
2022-11-29T05:44:00.341Z,6589.440
2022-11-29T05:45:00.275Z,7234.560
2022-11-29T05:46:00.323Z,9077.760
2022-11-29T05:47:00.276Z,7096.320
2022-11-29T05:48:00.486Z,5806.080
2022-11-29T05:49:00.297Z,6036.480
2022-11-29T05:50:00.296Z,4884.480
2022-11-29T05:51:00.376Z,5575.680
2022-11-29T05:52:00.247Z,6497.280
2022-11-29T05:53:00.308Z,5783.040
2022-11-29T05:54:00.596Z,5944.320
2022-11-29T05:55:00.369Z,4654.080
2022-11-29T05:56:00.299Z,6912.000
2022-11-29T05:57:00.312Z,10045.440
2022-11-29T05:58:00.418Z,6681.600
2022-11-29T05:59:00.499Z,3939.840
2022-11-29T06:00:00.462Z,3801.600
2022-11-29T06:01:00.278Z,5137.920
2022-11-29T06:02:00.367Z,5160.960
2022-11-29T06:03:00.369Z,9169.920
2022-11-29T06:04:00.310Z,8156.160
2022-11-29T06:05:00.351Z,5598.720
2022-11-29T06:06:00.541Z,3640.320
2022-11-29T06:07:00.271Z,3202.560
2022-11-29T06:08:00.335Z,2995.200
2022-11-29T06:09:00.283Z,3317.760
2022-11-29T06:10:01.804Z,4769.280
2022-11-29T06:11:00.312Z,3663.360
2022-11-29T06:12:00.457Z,3778.560
2022-11-29T06:13:00.310Z,4147.200
2022-11-29T06:14:00.249Z,4561.920
2022-11-29T06:15:00.579Z,4700.160
2022-11-29T06:16:00.301Z,4861.440
2022-11-29T06:17:00.252Z,4907.520
2022-11-29T06:18:00.410Z,4884.480
2022-11-29T06:19:00.283Z,4792.320
2022-11-29T06:20:00.280Z,4515.840
2022-11-29T06:21:00.303Z,3962.880
2022-11-29T06:22:00.280Z,3640.320
2022-11-29T06:23:00.273Z,3432.960
2022-11-29T06:24:00.462Z,3778.560
2022-11-29T06:25:00.278Z,4147.200
2022-11-29T06:26:03.848Z,3962.880
2022-11-29T06:27:00.301Z,3502.080
2022-11-29T06:28:00.306Z,3110.400
2022-11-29T06:29:00.248Z,2833.920
2022-11-29T06:30:00.460Z,2476.800
2022-11-29T06:31:00.343Z,2373.120
2022-11-29T06:32:00.249Z,2453.760
2022-11-29T06:33:00.259Z,2995.200
2022-11-29T06:34:00.291Z,3732.480
2022-11-29T06:35:00.404Z,4101.120
2022-11-29T06:36:00.522Z,4193.280
2022-11-29T06:37:00.246Z,4193.280
2022-11-29T06:38:00.323Z,4078.080
2022-11-29T06:39:00.275Z,3548.160
2022-11-29T06:40:00.278Z,2949.120
2022-11-29T06:41:02.180Z,2684.160
2022-11-29T06:42:00.471Z,2453.760
2022-11-29T06:43:00.288Z,2373.120
2022-11-29T06:44:00.364Z,2407.680
2022-11-29T06:45:00.375Z,2522.880
2022-11-29T06:46:00.449Z,2568.960
2022-11-29T06:47:00.434Z,2522.880
2022-11-29T06:48:00.471Z,2361.600
2022-11-29T06:49:02.260Z,2223.360
2022-11-29T06:50:00.312Z,2073.600
2022-11-29T06:51:00.334Z,1969.920
2022-11-29T06:52:00.276Z,1958.400
2022-11-29T06:53:00.258Z,1958.400
2022-11-29T06:54:00.503Z,2016.000
2022-11-29T06:55:00.283Z,2073.600
2022-11-29T06:56:00.289Z,2165.760
2022-11-29T06:57:00.308Z,2350.080
2022-11-29T06:58:00.251Z,2534.400
2022-11-29T06:59:00.327Z,2764.800
2022-11-29T07:00:00.510Z,3041.280
2022-11-29T07:01:00.509Z,3248.640
2022-11-29T07:02:00.287Z,3317.760
2022-11-29T07:03:00.250Z,3386.880
2022-11-29T07:04:00.272Z,3617.280
2022-11-29T07:05:00.320Z,3709.440
2022-11-29T07:06:00.446Z,3801.600
2022-11-29T07:07:00.310Z,4239.360
2022-11-29T07:08:00.446Z,4861.440
2022-11-29T07:09:00.283Z,5299.200
2022-11-29T07:10:00.286Z,5391.360
2022-11-29T07:11:00.347Z,5483.520
2022-11-29T07:12:00.439Z,5322.240
2022-11-29T07:13:00.293Z,4999.680
2022-11-29T07:14:00.279Z,4677.120
2022-11-29T07:15:00.304Z,4907.520
2022-11-29T07:16:00.497Z,4584.960
2022-11-29T07:17:00.397Z,4446.720
2022-11-29T07:18:00.519Z,4216.320
2022-11-29T07:19:00.348Z,4193.280
2022-11-29T07:20:00.290Z,4423.680
2022-11-29T07:21:00.305Z,4584.960
2022-11-29T07:22:00.320Z,4815.360
2022-11-29T07:23:00.381Z,5045.760
2022-11-29T07:24:00.474Z,5184.000
2022-11-29T07:25:00.342Z,5299.200
2022-11-29T07:26:00.349Z,5483.520
2022-11-29T07:27:00.338Z,5875.200
2022-11-29T07:28:00.321Z,6082.560
2022-11-29T07:29:00.365Z,6359.040
2022-11-29T07:30:00.573Z,6174.720
2022-11-29T07:31:00.275Z,6312.960
2022-11-29T07:32:00.622Z,6082.560
2022-11-29T07:33:00.813Z,6128.640
2022-11-29T07:34:00.288Z,6451.200
2022-11-29T07:35:00.306Z,6773.760
2022-11-29T07:36:00.582Z,6912.000
2022-11-29T07:37:00.277Z,7188.480
2022-11-29T07:38:00.330Z,7280.640
2022-11-29T07:39:00.508Z,7004.160
2022-11-29T07:40:00.331Z,7234.560
2022-11-29T07:41:00.337Z,7418.880
2022-11-29T07:42:00.452Z,7464.960
2022-11-29T07:43:00.279Z,7741.440
2022-11-29T07:44:00.300Z,7787.520
2022-11-29T07:45:00.289Z,7833.600
2022-11-29T07:46:00.320Z,7372.800
2022-11-29T07:47:00.339Z,7004.160
2022-11-29T07:48:00.689Z,6773.760
2022-11-29T07:49:00.340Z,6773.760
2022-11-29T07:50:00.309Z,6865.920
2022-11-29T07:51:00.354Z,7234.560
2022-11-29T07:52:00.621Z,8432.640
2022-11-29T07:53:00.311Z,9216.000
2022-11-29T07:54:01.046Z,9216.000
2022-11-29T07:55:00.286Z,8202.240
2022-11-29T07:56:00.312Z,7188.480
2022-11-29T07:57:00.599Z,6727.680
2022-11-29T07:58:00.310Z,7188.480
2022-11-29T07:59:00.558Z,7188.480
2022-11-29T08:00:00.455Z,6819.840
2022-11-29T08:01:00.476Z,6359.040
2022-11-29T08:02:00.422Z,6405.120
2022-11-29T08:03:00.469Z,5898.240
2022-11-29T08:04:00.389Z,5460.480
2022-11-29T08:05:00.319Z,5045.760
2022-11-29T08:06:00.569Z,4815.360
2022-11-29T08:07:00.353Z,4377.600
2022-11-29T08:08:00.352Z,4147.200
2022-11-29T08:09:00.268Z,4032.000
2022-11-29T08:10:00.314Z,3939.840
2022-11-29T08:11:00.289Z,4032.000
2022-11-29T08:12:00.415Z,4101.120
2022-11-29T08:13:00.283Z,4008.960
2022-11-29T08:14:00.281Z,4032.000
2022-11-29T08:15:00.280Z,4101.120
2022-11-29T08:16:00.342Z,4101.120
2022-11-29T08:17:00.309Z,4078.080
2022-11-29T08:18:00.475Z,4008.960
2022-11-29T08:19:00.428Z,3916.800
2022-11-29T08:20:04.130Z,3893.760
2022-11-29T08:21:00.277Z,4008.960
2022-11-29T08:22:00.288Z,4147.200
2022-11-29T08:23:00.328Z,4308.480
2022-11-29T08:24:00.597Z,4769.280
2022-11-29T08:25:00.308Z,5460.480
2022-11-29T08:26:00.295Z,6128.640
2022-11-29T08:27:00.325Z,6174.720
2022-11-29T08:28:00.279Z,5990.400
2022-11-29T08:29:00.281Z,6174.720
2022-11-29T08:30:00.505Z,6865.920
2022-11-29T08:31:00.315Z,7234.560
2022-11-29T08:32:00.406Z,8248.320
2022-11-29T08:33:00.298Z,11473.920
2022-11-29T08:34:00.434Z,14745.600
2022-11-29T08:35:00.319Z,15575.040
2022-11-29T08:36:00.557Z,16128.000
2022-11-29T08:37:00.284Z,16035.840
2022-11-29T08:38:00.316Z,15667.200
2022-11-29T08:39:06.103Z,11888.640
2022-11-29T08:40:00.288Z,14653.440
2022-11-29T08:41:00.328Z,14929.920
2022-11-29T08:42:00.434Z,12718.080
2022-11-29T08:43:00.288Z,15206.400
2022-11-29T08:44:00.346Z,14745.600
2022-11-29T08:45:00.393Z,13086.720
2022-11-29T08:46:00.386Z,12165.120
2022-11-29T08:47:00.341Z,11888.640
2022-11-29T08:48:00.696Z,11888.640
2022-11-29T08:49:00.490Z,11704.320
2022-11-29T08:50:00.393Z,13178.880
2022-11-29T08:51:00.285Z,18616.320
2022-11-29T08:52:00.356Z,17049.600
2022-11-29T08:53:00.260Z,23592.961
2022-11-29T08:54:00.430Z,18524.160
2022-11-29T08:55:03.005Z,9169.920
2022-11-29T08:56:00.322Z,7925.760
2022-11-29T08:57:37.334Z,10414.080
2022-11-29T08:58:00.246Z,9031.680
2022-11-29T08:59:00.249Z,7511.040
2022-11-29T09:00:00.541Z,7004.160
2022-11-29T09:01:00.363Z,7096.320
2022-11-29T09:02:00.405Z,7649.280
2022-11-29T09:03:00.310Z,7695.360
2022-11-29T09:04:00.480Z,8156.160
2022-11-29T09:05:00.319Z,16220.160
2022-11-29T09:06:00.493Z,9354.240
2022-11-29T09:07:00.249Z,9630.720
2022-11-29T09:08:00.459Z,9630.720
2022-11-29T09:09:00.279Z,12533.760
2022-11-29T09:10:00.311Z,22671.359
2022-11-29T09:11:00.282Z,17971.199
2022-11-29T09:12:00.424Z,15851.520
2022-11-29T09:13:00.357Z,15943.680
2022-11-29T09:14:00.350Z,16404.480
2022-11-29T09:15:00.332Z,16865.279
2022-11-29T09:16:00.322Z,15206.400
2022-11-29T09:17:00.334Z,20183.039
2022-11-29T09:18:00.474Z,17694.721
2022-11-29T09:19:00.421Z,18432.000
2022-11-29T09:20:00.247Z,15114.240
2022-11-29T09:21:00.348Z,14376.960
2022-11-29T09:22:00.295Z,14745.600
2022-11-29T09:23:00.332Z,20459.520
2022-11-29T09:24:00.541Z,24883.199
2022-11-29T09:25:00.254Z,24330.240
2022-11-29T09:26:00.248Z,23961.600
2022-11-29T09:27:00.281Z,20920.320
2022-11-29T09:28:00.256Z,21104.641
2022-11-29T09:29:00.288Z,18892.801
2022-11-29T09:30:00.457Z,14192.640
2022-11-29T09:31:00.280Z,14284.800
2022-11-29T09:32:00.333Z,18247.680
2022-11-29T09:33:00.327Z,20183.039
2022-11-29T09:34:00.440Z,23040.000
2022-11-29T09:35:00.304Z,23777.279
2022-11-29T09:36:00.578Z,19169.279
2022-11-29T09:37:00.442Z,18155.520
2022-11-29T09:38:00.305Z,19814.400
2022-11-29T09:39:00.287Z,19906.561
2022-11-29T09:40:00.371Z,23592.961
2022-11-29T09:41:00.523Z,25067.520
2022-11-29T09:42:00.443Z,34283.520
2022-11-29T09:43:00.347Z,29675.520
2022-11-29T09:44:00.336Z,35020.801
2022-11-29T09:45:00.435Z,45342.719
2022-11-29T09:46:00.325Z,39997.441
2022-11-29T09:47:00.369Z,40366.078
2022-11-29T09:48:00.541Z,36679.680
2022-11-29T09:49:00.532Z,31334.400
2022-11-29T09:50:00.362Z,40366.078
2022-11-29T09:51:00.367Z,45711.359
2022-11-29T09:52:00.278Z,35205.121
2022-11-29T09:53:00.362Z,19630.080
2022-11-29T09:54:00.578Z,12257.280
2022-11-29T09:55:00.328Z,10598.400
2022-11-29T09:56:00.347Z,9768.960
2022-11-29T09:57:00.329Z,7372.800
2022-11-29T09:58:00.307Z,7464.960
2022-11-29T09:59:00.281Z,8893.440
2022-11-29T10:00:00.494Z,10368.000
2022-11-29T10:01:00.358Z,17233.920
2022-11-29T10:02:00.423Z,15943.680
2022-11-29T10:03:00.368Z,15667.200
2022-11-29T10:04:00.422Z,14469.120
2022-11-29T10:05:00.280Z,8663.040
2022-11-29T10:06:00.503Z,8709.120
2022-11-29T10:07:00.277Z,8709.120
2022-11-29T10:08:00.382Z,10045.440
2022-11-29T10:09:00.304Z,6912.000
2022-11-29T10:10:00.310Z,4815.360
2022-11-29T10:11:00.265Z,4631.040
2022-11-29T10:12:00.433Z,4769.280
2022-11-29T10:13:00.274Z,4769.280
2022-11-29T10:14:00.272Z,4677.120
2022-11-29T10:15:00.705Z,4515.840
2022-11-29T10:16:00.596Z,4331.520
2022-11-29T10:17:00.363Z,4101.120
2022-11-29T10:18:01.009Z,4008.960
2022-11-29T10:19:00.494Z,4170.240
2022-11-29T10:20:00.316Z,4515.840
2022-11-29T10:21:00.308Z,5460.480
2022-11-29T10:22:00.274Z,6312.960
2022-11-29T10:23:00.251Z,7188.480
2022-11-29T10:24:00.437Z,8801.280
2022-11-29T10:25:00.249Z,11704.320
2022-11-29T10:26:00.285Z,12441.600
2022-11-29T10:27:00.273Z,10598.400
2022-11-29T10:28:00.286Z,11105.280
2022-11-29T10:29:00.375Z,11520.000
2022-11-29T10:30:00.539Z,6958.080
2022-11-29T10:31:00.317Z,9815.040
2022-11-29T10:32:00.328Z,7142.400
2022-11-29T10:33:00.299Z,8386.560
2022-11-29T10:34:00.486Z,6865.920
2022-11-29T10:35:00.362Z,6589.440
2022-11-29T10:36:00.483Z,7511.040
2022-11-29T10:37:00.288Z,7741.440
2022-11-29T10:38:30.860Z,7004.160
2022-11-29T10:39:00.278Z,5736.960
2022-11-29T10:40:00.252Z,5322.240
2022-11-29T10:41:00.247Z,4976.640
2022-11-29T10:42:00.669Z,4262.400
2022-11-29T10:43:00.307Z,4147.200
2022-11-29T10:44:00.253Z,4101.120
2022-11-29T10:45:00.311Z,4239.360
2022-11-29T10:46:00.382Z,4446.720
2022-11-29T10:47:00.284Z,5667.840
2022-11-29T10:48:00.446Z,4723.200
2022-11-29T10:49:00.502Z,4538.880
2022-11-29T10:50:00.274Z,5114.880
2022-11-29T10:51:00.285Z,4032.000
2022-11-29T10:52:00.287Z,3916.800
2022-11-29T10:53:00.360Z,3801.600
2022-11-29T10:54:00.402Z,3778.560
2022-11-29T10:55:00.306Z,3456.000
2022-11-29T10:56:00.274Z,3962.880
2022-11-29T10:57:00.283Z,4285.440
2022-11-29T10:58:00.271Z,4492.800
2022-11-29T10:59:00.249Z,4907.520
2022-11-29T11:00:00.459Z,5114.880
2022-11-29T11:01:00.425Z,5460.480
2022-11-29T11:02:00.297Z,5852.160
2022-11-29T11:03:00.342Z,6589.440
2022-11-29T11:04:00.425Z,7418.880
2022-11-29T11:05:00.357Z,7464.960
2022-11-29T11:06:00.471Z,5875.200
2022-11-29T11:07:00.304Z,6036.480
2022-11-29T11:08:00.372Z,7004.160
2022-11-29T11:09:00.354Z,7787.520
2022-11-29T11:10:00.328Z,6220.800
2022-11-29T11:11:02.059Z,9308.160
2022-11-29T11:12:00.486Z,5944.320
2022-11-29T11:13:00.251Z,5944.320
2022-11-29T11:14:00.304Z,5184.000
2022-11-29T11:15:00.314Z,4308.480
2022-11-29T11:16:00.282Z,3962.880
2022-11-29T11:17:00.356Z,3617.280
2022-11-29T11:18:00.639Z,3617.280
2022-11-29T11:19:00.379Z,3525.120
2022-11-29T11:20:00.447Z,3456.000
2022-11-29T11:21:00.308Z,3548.160
2022-11-29T11:22:00.249Z,3479.040
2022-11-29T11:23:00.290Z,3456.000
2022-11-29T11:24:00.402Z,3479.040
2022-11-29T11:25:00.250Z,3363.840
2022-11-29T11:26:00.261Z,3317.760
2022-11-29T11:27:00.281Z,3340.800
2022-11-29T11:28:00.279Z,3271.680
2022-11-29T11:29:00.337Z,3271.680
2022-11-29T11:30:00.431Z,3202.560
2022-11-29T11:31:00.408Z,3271.680
2022-11-29T11:32:00.307Z,3271.680
2022-11-29T11:33:00.275Z,3248.640
2022-11-29T11:34:00.277Z,3133.440
2022-11-29T11:35:00.399Z,3018.240
2022-11-29T11:36:00.454Z,2949.120
2022-11-29T11:37:00.311Z,2914.560
2022-11-29T11:38:00.312Z,2880.000
2022-11-29T11:39:00.340Z,2799.360
2022-11-29T11:40:00.457Z,2707.200
2022-11-29T11:41:00.311Z,2661.120
2022-11-29T11:42:00.519Z,2626.560
2022-11-29T11:43:00.766Z,2580.480
2022-11-29T11:44:00.797Z,2592.000
2022-11-29T11:45:00.732Z,2522.880
2022-11-29T11:46:00.404Z,2453.760
2022-11-29T11:47:00.320Z,2407.680
2022-11-29T11:48:00.395Z,2373.120
2022-11-29T11:49:00.305Z,2350.080
2022-11-29T11:50:00.515Z,2315.520
2022-11-29T11:51:00.286Z,2257.920
2022-11-29T11:52:00.273Z,2211.840
2022-11-29T11:53:00.271Z,2165.760
2022-11-29T11:54:00.521Z,2131.200
2022-11-29T11:55:00.336Z,2085.120
2022-11-29T11:56:00.279Z,2050.560
2022-11-29T11:57:00.369Z,2016.000
2022-11-29T11:58:06.062Z,2027.520
2022-11-29T11:59:00.331Z,2073.600
2022-11-29T12:00:06.318Z,2108.160
2022-11-29T12:01:04.976Z,2188.800
2022-11-29T12:02:00.467Z,2200.320
2022-11-29T12:03:00.687Z,2200.320
2022-11-29T12:04:00.545Z,2200.320